Time;durP1;ratioP1;P1;durP2;ratioP2;P2;SDS_P1;SDS_P2;PMS_P1;PMS_P2;Temp;Humidity;BMP_temperature;BMP_pressure;BME280_temperature;BME280_humidity;BME280_pressure;Samples;Min_cycle;Max_cycle;Signal;HPM_P1;HPM_P2
2022/06/19 00:00:12;;;;;;;6.97;6.03;;;;;;;21.90;52.63;100328.53;5067157;28;20020;-21
2022/06/19 00:02:39;;;;;;;9.88;6.40;;;;;;;21.86;52.79;100335.06;5066385;28;20511;-22
2022/06/19 00:05:05;;;;;;;9.13;6.78;;;;;;;21.83;52.78;100324.50;5065969;28;20515;-21
2022/06/19 00:07:31;;;;;;;9.63;6.47;;;;;;;21.79;53.08;100334.59;5068058;28;20017;-22
2022/06/19 00:09:56;;;;;;;8.55;6.32;;;;;;;21.74;53.16;100325.94;5067029;28;20032;-21
2022/06/19 00:12:22;;;;;;;6.80;6.20;;;;;;;21.73;52.80;100323.31;5064344;28;20023;-21
2022/06/19 00:14:47;;;;;;;8.02;6.53;;;;;;;21.67;52.70;100313.81;5067119;28;20032;-22
2022/06/19 00:17:13;;;;;;;9.52;6.53;;;;;;;21.66;53.24;100318.34;5065924;28;20024;-21
2022/06/19 00:19:39;;;;;;;7.10;6.35;;;;;;;21.63;53.05;100312.28;5054560;28;20028;-21
2022/06/19 00:22:05;;;;;;;11.35;6.57;;;;;;;21.59;52.83;100322.38;5068221;28;20443;-21
2022/06/19 00:24:30;;;;;;;7.75;6.22;;;;;;;21.52;53.64;100321.88;5051893;28;20068;-21
2022/06/19 00:26:56;;;;;;;7.90;6.47;;;;;;;21.48;53.45;100309.59;5066028;28;20036;-21
2022/06/19 00:29:21;;;;;;;10.80;6.03;;;;;;;21.46;53.27;100307.97;5049233;28;20025;-21
2022/06/19 00:31:47;;;;;;;7.90;6.25;;;;;;;21.41;53.41;100297.53;5067576;28;20032;-22
2022/06/19 00:34:12;;;;;;;10.73;6.70;;;;;;;21.40;53.76;100277.88;5051046;28;20024;-21
2022/06/19 00:36:37;;;;;;;9.68;6.10;;;;;;;21.37;53.69;100272.72;5066705;28;20033;-21
2022/06/19 00:39:03;;;;;;;9.48;6.55;;;;;;;21.35;54.26;100269.28;5064634;28;20106;-21
2022/06/19 00:41:41;;;;;;;9.18;6.82;;;;;;;21.32;53.96;100269.44;5060996;28;20284;-21
2022/06/19 00:44:09;;;;;;;8.52;6.55;;;;;;;21.28;53.79;100267.91;5065099;28;20079;-21
2022/06/19 00:46:50;;;;;;;8.13;6.32;;;;;;;21.25;53.91;100254.69;5055104;28;20159;-21
2022/06/19 00:49:33;;;;;;;7.45;6.15;;;;;;;21.22;53.86;100257.56;5048449;28;20044;-21
2022/06/19 00:52:20;;;;;;;8.57;6.93;;;;;;;21.20;53.61;100259.47;5044075;28;20044;-22
2022/06/19 00:54:45;;;;;;;9.65;6.38;;;;;;;21.15;53.54;100265.13;5064929;28;20059;-20
2022/06/19 00:57:12;;;;;;;7.63;6.57;;;;;;;21.10;53.71;100262.69;5067925;28;20082;-21
2022/06/19 00:59:39;;;;;;;10.60;7.20;;;;;;;21.05;53.41;100254.09;5067047;28;20035;-21
2022/06/19 01:02:05;;;;;;;6.80;6.20;;;;;;;21.05;53.74;100258.56;5066355;28;20028;-21
2022/06/19 01:04:38;;;;;;;7.50;6.45;;;;;;;21.02;53.78;100259.63;5044747;28;20108;-21
2022/06/19 01:07:05;;;;;;;8.63;6.28;;;;;;;20.97;53.78;100251.84;5056975;28;20060;-21
2022/06/19 01:09:31;;;;;;;8.10;7.28;;;;;;;20.93;53.78;100247.63;5067384;28;20112;-21
2022/06/19 01:11:56;;;;;;;8.95;6.85;;;;;;;20.91;53.81;100257.59;5067402;28;20556;-21
2022/06/19 01:14:23;;;;;;;9.32;6.07;;;;;;;20.88;54.02;100252.38;5067024;28;20028;-21
2022/06/19 01:16:49;;;;;;;7.43;6.65;;;;;;;20.85;53.84;100253.44;5067853;28;20052;-21
2022/06/19 01:19:22;;;;;;;6.90;6.30;;;;;;;20.79;54.02;100237.69;5067497;28;20071;-21
2022/06/19 01:22:00;;;;;;;7.82;6.50;;;;;;;20.80;54.47;100222.50;5067057;28;20180;-21
2022/06/19 01:24:36;;;;;;;6.68;6.13;;;;;;;20.73;54.33;100227.34;5067534;28;20292;-21
2022/06/19 01:27:05;;;;;;;8.13;6.95;;;;;;;20.72;54.93;100214.91;5066471;28;20024;-21
2022/06/19 01:29:32;;;;;;;8.10;7.28;;;;;;;20.67;54.94;100227.72;5064797;28;20111;-21
2022/06/19 01:32:01;;;;;;;8.32;6.93;;;;;;;20.62;54.38;100231.53;5054059;28;20032;-21
2022/06/19 01:34:35;;;;;;;7.80;7.00;;;;;;;20.61;55.26;100235.13;5068594;28;20039;-21
2022/06/19 01:37:16;;;;;;;13.20;7.20;;;;;;;20.55;55.77;100219.44;5067807;28;20036;-22
2022/06/19 01:39:51;;;;;;;10.55;7.35;;;;;;;20.57;54.80;100217.53;5065609;28;20020;-21
2022/06/19 01:42:17;;;;;;;9.27;7.43;;;;;;;20.54;55.18;100212.34;5060488;28;20068;-21
2022/06/19 01:44:43;;;;;;;7.65;6.82;;;;;;;20.52;54.81;100198.19;5065380;28;20319;-20
2022/06/19 01:47:09;;;;;;;10.88;7.25;;;;;;;20.45;55.03;100181.63;5067463;28;20040;-21
2022/06/19 01:49:37;;;;;;;8.77;6.72;;;;;;;20.42;54.83;100178.25;5045481;28;20028;-21
2022/06/19 01:52:03;;;;;;;9.90;7.10;;;;;;;20.42;54.86;100180.91;5045548;28;20013;-21
2022/06/19 01:54:32;;;;;;;8.30;6.32;;;;;;;20.41;54.88;100171.19;5045753;28;20589;-21
2022/06/19 01:56:58;;;;;;;8.18;7.10;;;;;;;20.35;55.22;100159.88;5040957;28;20024;-20
2022/06/19 01:59:24;;;;;;;7.85;7.05;;;;;;;20.27;55.03;100145.22;5069023;28;20029;-22
2022/06/19 02:01:53;;;;;;;9.25;7.30;;;;;;;20.26;55.06;100147.00;5056266;28;20149;-21
2022/06/19 02:04:19;;;;;;;7.90;7.05;;;;;;;20.22;55.07;100149.03;5068458;28;20024;-21
2022/06/19 02:06:46;;;;;;;7.88;6.63;;;;;;;20.18;54.85;100149.28;5069793;28;20560;-21
2022/06/19 02:09:14;;;;;;;8.40;7.45;;;;;;;20.12;54.94;100143.34;5058290;28;20222;-22
2022/06/19 02:11:39;;;;;;;8.32;7.40;;;;;;;20.08;55.12;100136.41;5063734;28;20074;-21
2022/06/19 02:14:06;;;;;;;10.60;7.15;;;;;;;20.08;55.04;100143.59;5069565;28;20025;-21
2022/06/19 02:16:35;;;;;;;7.43;6.72;;;;;;;20.04;54.81;100134.03;5047720;28;20185;-21
2022/06/19 02:19:00;;;;;;;11.40;6.70;;;;;;;19.96;54.89;100137.97;5069437;28;20035;-21
2022/06/19 02:21:41;;;;;;;10.32;6.60;;;;;;;19.93;55.09;100132.78;5068833;28;20024;-21
2022/06/19 02:24:08;;;;;;;14.75;7.72;;;;;;;19.87;54.99;100123.28;5054778;28;20310;-21
2022/06/19 02:26:35;;;;;;;12.75;6.93;;;;;;;19.86;55.15;100118.03;5068067;28;20036;-20
2022/06/19 02:29:01;;;;;;;7.47;6.55;;;;;;;19.83;55.15;100115.53;5062982;28;20020;-20
2022/06/19 02:31:26;;;;;;;8.02;7.22;;;;;;;19.82;55.52;100101.31;5042858;28;20389;-21
2022/06/19 02:33:54;;;;;;;9.10;7.05;;;;;;;19.76;55.76;100104.31;5067834;28;20029;-21
2022/06/19 02:36:36;;;;;;;9.38;6.70;;;;;;;19.75;55.45;100106.13;5055957;28;20020;-21
2022/06/19 02:39:34;;;;;;;7.30;6.43;;;;;;;19.72;55.79;100100.09;5067366;28;20031;-21
2022/06/19 02:42:09;;;;;;;9.00;7.53;;;;;;;19.64;55.46;100088.97;5032176;28;20043;-21
2022/06/19 02:44:37;;;;;;;10.98;6.90;;;;;;;19.63;55.49;100084.56;5043164;28;20116;-21
2022/06/19 02:47:03;;;;;;;8.38;6.63;;;;;;;19.59;55.60;100076.72;5049161;28;20021;-21
2022/06/19 02:49:29;;;;;;;9.70;7.50;;;;;;;19.54;55.50;100076.09;5067719;28;20051;-21
2022/06/19 02:51:54;;;;;;;7.57;6.97;;;;;;;19.53;55.73;100081.53;5068031;28;20033;-20
2022/06/19 02:54:19;;;;;;;9.20;7.20;;;;;;;19.49;55.48;100086.19;5068409;28;20024;-20
2022/06/19 02:56:45;;;;;;;10.25;6.53;;;;;;;19.49;55.85;100086.19;5065337;28;20397;-21
2022/06/19 02:59:10;;;;;;;7.28;6.68;;;;;;;19.46;55.71;100091.72;5068961;28;20543;-21
2022/06/19 03:01:36;;;;;;;8.57;7.53;;;;;;;19.41;55.64;100077.75;5069062;28;20082;-21
2022/06/19 03:04:01;;;;;;;8.55;7.32;;;;;;;19.42;56.35;100076.78;5073880;28;20033;-21
2022/06/19 03:06:27;;;;;;;8.45;6.97;;;;;;;19.37;55.97;100085.06;5069221;28;20028;-21
2022/06/19 03:08:53;;;;;;;8.00;7.28;;;;;;;19.39;56.03;100074.28;5068385;28;20020;-21
2022/06/19 03:11:18;;;;;;;10.93;7.30;;;;;;;19.36;56.24;100070.84;5069019;28;20051;-21
2022/06/19 03:13:46;;;;;;;8.52;7.18;;;;;;;19.35;56.33;100079.81;5069346;28;20107;-21
2022/06/19 03:16:11;;;;;;;8.52;7.32;;;;;;;19.28;55.98;100086.47;5067326;28;20019;-21
2022/06/19 03:18:38;;;;;;;8.10;6.97;;;;;;;19.27;56.61;100071.34;5067600;28;20028;-21
2022/06/19 03:21:04;;;;;;;7.43;6.70;;;;;;;19.27;56.29;100074.03;5066827;28;20031;-21
2022/06/19 03:23:30;;;;;;;9.18;7.13;;;;;;;19.28;56.74;100073.09;5065624;28;20020;-21
2022/06/19 03:25:55;;;;;;;12.50;7.57;;;;;;;19.26;56.40;100074.97;5068302;28;20043;-21
2022/06/19 03:28:21;;;;;;;10.43;7.13;;;;;;;19.22;56.30;100063.59;5066653;28;20028;-21
2022/06/19 03:30:50;;;;;;;8.35;6.82;;;;;;;19.22;56.91;100078.78;5067435;28;20377;-21
2022/06/19 03:33:15;;;;;;;9.80;7.20;;;;;;;19.17;56.12;100065.66;5069113;28;20029;-21
2022/06/19 03:35:41;;;;;;;7.70;6.78;;;;;;;19.17;56.50;100081.69;5067412;28;20457;-21
2022/06/19 03:38:06;;;;;;;7.28;6.68;;;;;;;19.16;56.72;100071.06;5056679;28;20036;-21
2022/06/19 03:40:31;;;;;;;8.45;6.72;;;;;;;19.15;56.43;100080.06;5067031;28;20028;-21
2022/06/19 03:42:57;;;;;;;9.20;7.15;;;;;;;19.14;56.34;100081.00;5066811;28;20044;-21
2022/06/19 03:45:22;;;;;;;8.57;7.07;;;;;;;19.14;56.55;100086.34;5051508;28;20059;-21
2022/06/19 03:47:47;;;;;;;8.70;7.18;;;;;;;19.10;56.53;100078.50;5067397;28;20070;-21
2022/06/19 03:50:16;;;;;;;8.38;6.97;;;;;;;19.07;56.35;100084.00;5067701;28;20028;-21
2022/06/19 03:52:41;;;;;;;8.45;7.55;;;;;;;19.06;56.51;100074.28;5067743;28;20389;-21
2022/06/19 03:55:07;;;;;;;8.68;6.93;;;;;;;19.07;56.73;100081.31;5066426;28;20631;-21
2022/06/19 03:57:32;;;;;;;9.30;7.57;;;;;;;19.01;56.70;100073.63;5066099;28;20024;-21
2022/06/19 03:59:57;;;;;;;11.20;7.55;;;;;;;18.96;57.38;100062.31;5066276;28;20445;-21
2022/06/19 04:02:23;;;;;;;7.68;6.90;;;;;;;18.97;56.93;100069.38;5066888;28;20120;-21
2022/06/19 04:04:48;;;;;;;8.35;7.55;;;;;;;18.95;57.10;100072.16;5065995;28;20025;-20
2022/06/19 04:07:15;;;;;;;11.57;7.28;;;;;;;18.97;57.28;100064.91;5066240;28;20147;-21
2022/06/19 04:09:41;;;;;;;8.48;7.18;;;;;;;18.95;56.95;100065.94;5067475;28;20087;-21
2022/06/19 04:12:07;;;;;;;7.90;7.18;;;;;;;18.93;56.74;100062.47;5067921;28;20025;-20
2022/06/19 04:14:32;;;;;;;9.43;7.75;;;;;;;18.95;57.37;100049.91;5052979;28;20123;-21
2022/06/19 04:16:57;;;;;;;9.27;7.43;;;;;;;18.94;56.87;100051.69;5067591;28;20043;-21
2022/06/19 04:19:23;;;;;;;10.75;7.78;;;;;;;19.01;57.90;100057.59;5066274;28;20434;-20
2022/06/19 04:21:49;;;;;;;8.93;7.80;;;;;;;18.97;57.02;100053.34;5067435;28;20051;-21
2022/06/19 04:24:17;;;;;;;9.32;7.85;;;;;;;18.98;57.20;100055.09;5068763;28;20024;-21
2022/06/19 04:26:43;;;;;;;9.98;7.50;;;;;;;18.98;57.28;100049.75;5068047;28;20029;-21
2022/06/19 04:29:09;;;;;;;8.25;7.45;;;;;;;19.01;56.83;100049.59;5067139;28;20035;-21
2022/06/19 04:31:35;;;;;;;9.65;8.50;;;;;;;19.04;57.20;100045.88;5066583;28;20043;-21
2022/06/19 04:34:00;;;;;;;8.98;7.38;;;;;;;19.04;57.03;100046.72;5057217;28;20476;-21
2022/06/19 04:36:28;;;;;;;7.97;7.18;;;;;;;19.08;56.72;100045.63;5065914;28;20401;-21
2022/06/19 04:38:56;;;;;;;8.05;7.25;;;;;;;19.12;56.76;100040.13;5056429;28;20075;-21
2022/06/19 04:41:24;;;;;;;9.45;6.78;;;;;;;19.18;56.48;100037.13;5066128;28;20028;-21
2022/06/19 04:43:50;;;;;;;9.13;7.18;;;;;;;19.22;57.65;100030.66;5065997;28;20111;-21
2022/06/19 04:46:16;;;;;;;8.63;7.75;;;;;;;19.24;58.10;100012.69;5066948;28;20035;-21
2022/06/19 04:48:41;;;;;;;8.43;7.32;;;;;;;19.29;57.37;100015.13;5067774;28;20495;-21
2022/06/19 04:51:07;;;;;;;8.68;7.70;;;;;;;19.29;59.06;99993.75;5067940;28;20074;-21
2022/06/19 04:53:33;;;;;;;8.13;7.32;;;;;;;19.30;56.86;99996.34;5067315;28;20472;-21
2022/06/19 04:55:58;;;;;;;11.10;7.38;;;;;;;19.32;59.51;99982.88;5067112;28;20028;-21
2022/06/19 04:58:24;;;;;;;9.52;8.02;;;;;;;19.39;56.42;99986.06;5049728;28;20103;-21
2022/06/19 05:00:50;;;;;;;8.95;7.03;;;;;;;19.46;56.13;99979.41;5067854;28;20071;-21
2022/06/19 05:03:17;;;;;;;8.05;7.38;;;;;;;19.52;55.56;99972.84;5066510;28;20040;-21
2022/06/19 05:05:42;;;;;;;11.48;6.90;;;;;;;19.55;55.69;99970.88;5064578;28;20021;-21
2022/06/19 05:08:07;;;;;;;8.52;6.90;;;;;;;19.60;56.74;99970.59;5065510;28;20042;-21
2022/06/19 05:10:33;;;;;;;9.02;6.85;;;;;;;19.63;55.71;99974.91;5068030;28;20017;-21
2022/06/19 05:12:58;;;;;;;7.55;6.78;;;;;;;19.67;55.68;99971.09;5067544;28;20103;-21
2022/06/19 05:15:24;;;;;;;11.60;6.60;;;;;;;19.72;55.42;99966.34;5067301;28;20103;-21
2022/06/19 05:17:49;;;;;;;9.00;6.75;;;;;;;19.81;55.66;99967.63;5065296;28;20040;-21
2022/06/19 05:20:15;;;;;;;8.27;7.25;;;;;;;19.88;55.47;99963.63;5067224;28;20037;-21
2022/06/19 05:22:41;;;;;;;10.25;6.68;;;;;;;19.95;55.36;99967.66;5067259;28;20039;-21
2022/06/19 05:25:08;;;;;;;9.45;7.15;;;;;;;20.03;55.72;99969.00;5067488;28;20527;-21
2022/06/19 05:27:36;;;;;;;9.45;6.90;;;;;;;20.08;55.11;99965.09;5062304;28;20112;-20
2022/06/19 05:30:02;;;;;;;7.47;6.40;;;;;;;20.15;54.82;99957.59;5071838;28;20074;-21
2022/06/19 05:32:29;;;;;;;7.50;6.25;;;;;;;20.25;54.88;99955.22;5070209;28;20103;-21
2022/06/19 05:34:54;;;;;;;7.03;6.40;;;;;;;20.34;54.75;99954.63;5051053;28;20036;-21
2022/06/19 05:37:19;;;;;;;10.13;6.25;;;;;;;20.47;55.74;99953.88;5071102;28;20502;-21
2022/06/19 05:39:45;;;;;;;9.07;5.93;;;;;;;20.58;55.93;99962.06;5052501;28;20090;-22
2022/06/19 05:42:10;;;;;;;11.60;6.75;;;;;;;20.70;56.30;99948.88;5069674;28;20513;-21
2022/06/19 05:44:36;;;;;;;13.35;5.88;;;;;;;20.82;56.41;99955.28;5069715;28;20480;-21
2022/06/19 05:47:02;;;;;;;10.20;5.65;;;;;;;20.96;56.51;99949.06;5068084;28;20206;-22
2022/06/19 05:49:27;;;;;;;8.35;6.10;;;;;;;21.08;56.20;99950.97;5068039;28;20054;-21
2022/06/19 05:51:53;;;;;;;10.52;6.18;;;;;;;21.20;56.49;99954.66;5067721;28;20032;-21
2022/06/19 05:54:18;;;;;;;13.80;6.30;;;;;;;21.31;56.33;99945.91;5057595;28;20046;-21
2022/06/19 05:56:43;;;;;;;11.60;5.82;;;;;;;21.46;56.36;99943.16;5068708;28;20039;-21
2022/06/19 05:59:09;;;;;;;9.77;6.07;;;;;;;21.59;56.24;99941.38;5070538;28;20522;-21
2022/06/19 06:01:34;;;;;;;11.50;5.47;;;;;;;21.73;55.92;99953.88;5069710;28;20058;-21
2022/06/19 06:04:00;;;;;;;9.52;5.75;;;;;;;21.87;55.78;99947.59;5071035;28;20456;-21
2022/06/19 06:06:27;;;;;;;11.38;5.20;;;;;;;21.98;55.58;99951.38;5068015;28;20502;-22
2022/06/19 06:08:53;;;;;;;10.50;5.22;;;;;;;22.11;55.61;99936.09;5069958;28;20024;-21
2022/06/19 06:11:19;;;;;;;12.50;5.90;;;;;;;22.26;55.61;99942.25;5069466;28;20036;-21
2022/06/19 06:13:45;;;;;;;10.40;5.53;;;;;;;22.39;55.20;99944.94;5068262;28;20106;-21
2022/06/19 06:16:12;;;;;;;12.00;5.65;;;;;;;22.52;55.04;99954.78;5058317;28;20476;-21
2022/06/19 06:18:37;;;;;;;13.10;5.68;;;;;;;22.64;54.94;99947.72;5069661;28;20546;-21
2022/06/19 06:21:09;;;;;;;13.43;5.70;;;;;;;22.76;54.64;99949.53;5067868;28;20033;-21
2022/06/19 06:23:34;;;;;;;7.72;5.10;;;;;;;22.87;54.58;99945.22;5066280;28;20031;-21
2022/06/19 06:26:04;;;;;;;6.80;5.68;;;;;;;22.98;54.15;99945.28;5068952;28;20032;-22
2022/06/19 06:28:31;;;;;;;9.20;5.13;;;;;;;23.09;53.99;99949.88;5068223;28;20484;-21
2022/06/19 06:30:56;;;;;;;10.77;5.35;;;;;;;23.20;53.94;99944.56;5067394;28;20032;-21
2022/06/19 06:33:22;;;;;;;9.48;5.13;;;;;;;23.34;53.54;99945.34;5067410;28;20479;-21
2022/06/19 06:35:47;;;;;;;9.05;4.50;;;;;;;23.48;53.52;99943.47;5069602;28;20024;-22
2022/06/19 06:38:13;;;;;;;9.73;5.53;;;;;;;23.60;53.54;99945.25;5069515;28;20031;-21
2022/06/19 06:40:38;;;;;;;12.00;5.90;;;;;;;23.77;53.65;99951.19;5032003;28;20987;-21
2022/06/19 06:43:03;;;;;;;11.35;5.63;;;;;;;23.87;53.18;99945.94;5067337;28;20024;-22
2022/06/19 06:45:29;;;;;;;13.60;4.93;;;;;;;24.01;53.00;99952.97;5066763;28;20960;-21
2022/06/19 06:47:55;;;;;;;13.00;5.32;;;;;;;24.15;52.97;99950.09;5068441;28;20028;-22
2022/06/19 06:50:20;;;;;;;9.38;5.43;;;;;;;24.28;52.50;99954.50;5067600;28;20025;-21
2022/06/19 06:52:46;;;;;;;7.30;4.97;;;;;;;24.38;52.83;99954.63;5066509;28;20063;-21
2022/06/19 06:55:12;;;;;;;8.82;4.70;;;;;;;24.53;52.86;99958.81;5068642;28;20024;-21
2022/06/19 06:57:37;;;;;;;7.28;5.05;;;;;;;24.64;52.33;99957.94;5057036;28;20119;-21
2022/06/19 07:00:04;;;;;;;8.70;4.57;;;;;;;24.83;52.49;99964.53;5070206;28;20514;-22
2022/06/19 07:02:30;;;;;;;7.88;4.45;;;;;;;25.06;51.42;99937.56;5055257;28;20064;-22
2022/06/19 07:04:55;;;;;;;10.77;4.82;;;;;;;25.25;50.98;99939.59;5063225;28;20036;-22
2022/06/19 07:07:20;;;;;;;8.50;5.40;;;;;;;25.41;50.34;99949.97;5067204;28;20107;-22
2022/06/19 07:09:46;;;;;;;9.23;4.75;;;;;;;25.63;49.69;99940.09;5066647;28;20514;-21
2022/06/19 07:12:11;;;;;;;8.05;4.55;;;;;;;25.80;48.73;99930.56;5067668;28;20021;-21
2022/06/19 07:14:36;;;;;;;12.35;5.00;;;;;;;25.91;48.68;99928.78;5070577;28;20111;-22
2022/06/19 07:17:02;;;;;;;8.40;4.63;;;;;;;26.00;48.37;99919.88;5073422;28;20468;-21
2022/06/19 07:19:27;;;;;;;9.43;5.10;;;;;;;26.05;48.65;99912.25;5067408;28;20076;-21
2022/06/19 07:21:53;;;;;;;8.75;4.57;;;;;;;26.22;48.22;99899.09;5068074;28;20083;-22
2022/06/19 07:24:19;;;;;;;9.77;4.75;;;;;;;26.29;47.75;99891.31;5068493;28;20111;-20
2022/06/19 07:26:45;;;;;;;8.77;4.28;;;;;;;26.36;47.33;99884.38;5058005;28;20135;-22
2022/06/19 07:29:10;;;;;;;9.60;4.68;;;;;;;26.45;47.95;99894.38;5068052;28;20020;-21
2022/06/19 07:31:36;;;;;;;14.02;5.10;;;;;;;26.65;46.88;99891.75;5068280;28;20036;-21
2022/06/19 07:34:03;;;;;;;7.15;4.25;;;;;;;26.77;46.27;99889.75;5067625;28;20055;-20
2022/06/19 07:36:28;;;;;;;7.82;4.60;;;;;;;26.96;45.60;99898.91;5067311;28;20024;-22
2022/06/19 07:38:54;;;;;;;6.90;4.40;;;;;;;27.19;45.00;99914.91;5067650;28;20498;-21
2022/06/19 07:41:19;;;;;;;10.02;4.45;;;;;;;27.30;44.42;99908.53;5055235;28;20094;-21
2022/06/19 07:43:45;;;;;;;11.68;4.43;;;;;;;27.38;44.02;99905.97;5065964;28;20064;-22
2022/06/19 07:46:11;;;;;;;7.60;4.47;;;;;;;27.49;44.38;99884.16;5067516;28;20748;-21
2022/06/19 07:51:20;;;;;;;9.50;4.18;;;;;;;27.74;44.04;99860.19;5066445;28;20503;-21
2022/06/19 07:53:46;;;;;;;9.40;4.50;;;;;;;27.88;43.62;99860.75;5063568;28;20103;-22
2022/06/19 07:56:11;;;;;;;9.50;4.43;;;;;;;27.96;43.37;99852.72;5053308;28;20056;-21
2022/06/19 07:58:36;;;;;;;12.45;4.47;;;;;;;28.11;43.21;99841.41;5056370;28;20029;-21
2022/06/19 08:01:02;;;;;;;10.27;4.85;;;;;;;28.25;42.75;99845.47;5065167;28;20112;-21
2022/06/19 08:03:29;;;;;;;8.82;4.05;;;;;;;28.34;42.32;99850.03;5052468;28;20531;-22
2022/06/19 08:05:54;;;;;;;8.85;4.10;;;;;;;28.49;42.49;99844.09;5067742;28;20044;-21
2022/06/19 08:08:27;;;;;;;9.85;4.03;;;;;;;28.60;42.35;99832.22;5052182;28;20055;-21
2022/06/19 08:10:54;;;;;;;11.75;4.93;;;;;;;28.72;42.28;99847.25;5065763;28;20020;-21
2022/06/19 08:13:21;;;;;;;6.47;4.75;;;;;;;28.87;42.73;99850.28;5064096;28;20028;-21
2022/06/19 08:15:51;;;;;;;8.52;3.80;;;;;;;29.00;42.17;99849.94;5064649;28;20074;-22
2022/06/19 08:18:18;;;;;;;8.63;3.70;;;;;;;29.13;42.09;99848.69;5064703;28;20032;-22
2022/06/19 08:20:44;;;;;;;8.35;3.83;;;;;;;29.20;42.01;99847.91;5045457;28;20043;-22
2022/06/19 08:23:10;;;;;;;9.40;3.47;;;;;;;29.44;40.81;99845.56;5065752;28;20024;-21
2022/06/19 08:25:36;;;;;;;9.18;3.80;;;;;;;29.63;39.37;99863.53;5031875;28;20111;-22
2022/06/19 08:28:01;;;;;;;12.38;5.15;;;;;;;29.71;39.11;99858.16;5037682;28;20020;-22
2022/06/19 08:30:40;;;;;;;15.38;4.18;;;;;;;29.75;38.54;99842.41;5068125;28;20016;-22
2022/06/19 08:33:07;;;;;;;9.15;3.63;;;;;;;29.91;38.64;99844.34;5067220;28;20528;-22
2022/06/19 08:35:35;;;;;;;10.73;4.10;;;;;;;30.14;36.86;99842.97;5067296;28;20369;-23
2022/06/19 08:38:05;;;;;;;6.90;3.67;;;;;;;30.17;37.23;99842.66;5065210;28;20384;-22
2022/06/19 08:40:50;;;;;;;9.27;3.55;;;;;;;30.31;37.23;99847.47;5066291;28;20400;-22
2022/06/19 08:43:40;;;;;;;11.75;3.78;;;;;;;30.46;37.78;99838.69;5063655;28;20033;-22
2022/06/19 08:46:28;;;;;;;10.38;3.97;;;;;;;30.54;37.25;99841.41;5068452;28;20031;-22
2022/06/19 08:49:22;;;;;;;12.38;3.70;;;;;;;30.67;37.24;99834.69;5067142;28;20075;-22
2022/06/19 08:52:17;;;;;;;9.25;3.80;;;;;;;30.76;37.12;99830.97;5044667;28;20078;-21
2022/06/19 08:55:04;;;;;;;13.30;3.85;;;;;;;30.96;36.17;99833.38;5065615;28;20024;-22
2022/06/19 08:58:07;;;;;;;10.43;3.42;;;;;;;31.20;35.28;99826.22;5067389;28;20379;-22
2022/06/19 09:00:37;;;;;;;12.65;3.72;;;;;;;31.30;35.67;99826.06;5066314;28;20451;-22
2022/06/19 09:06:37;;;;;;;13.15;3.38;;;;;;;31.51;35.52;99819.28;5059755;28;20043;-22
2022/06/19 09:09:29;;;;;;;12.30;3.70;;;;;;;31.62;34.93;99814.34;5070575;28;20138;-22
2022/06/19 09:12:11;;;;;;;10.00;3.25;;;;;;;31.82;33.76;99815.81;5068533;28;20031;-21
2022/06/19 09:15:00;;;;;;;9.98;3.75;;;;;;;31.94;34.23;99813.59;5070856;28;20028;-22
2022/06/19 09:17:29;;;;;;;16.25;4.25;;;;;;;32.05;33.63;99805.03;5071531;28;20048;-22
2022/06/19 09:20:13;;;;;;;14.23;4.38;;;;;;;32.17;33.42;99807.38;5071336;28;20427;-21
2022/06/19 09:22:59;;;;;;;16.17;4.32;;;;;;;32.30;33.43;99806.81;5070497;28;20021;-21
2022/06/19 09:25:44;;;;;;;15.65;4.68;;;;;;;32.38;33.15;99804.03;5073600;28;20032;-22
2022/06/19 09:28:28;;;;;;;15.85;4.20;;;;;;;32.50;32.89;99791.72;5070403;28;20028;-22
2022/06/19 09:31:05;;;;;;;11.18;3.55;;;;;;;32.62;32.74;99778.50;5069885;28;20111;-21
2022/06/19 09:33:43;;;;;;;15.55;4.25;;;;;;;32.70;32.87;99784.94;5049065;28;20052;-22
2022/06/19 09:36:26;;;;;;;12.57;3.78;;;;;;;32.78;32.69;99787.59;5050419;28;20191;-22
2022/06/19 09:39:02;;;;;;;13.90;4.07;;;;;;;32.87;32.94;99789.22;5070350;28;20031;-22
2022/06/19 09:41:36;;;;;;;17.40;4.13;;;;;;;32.97;32.13;99778.06;5066878;28;20039;-22
2022/06/19 09:44:22;;;;;;;12.68;4.80;;;;;;;33.07;32.97;99769.63;5070776;28;20033;-22
2022/06/19 09:46:54;;;;;;;7.80;4.55;;;;;;;33.13;32.53;99762.59;5055906;28;20037;-21
2022/06/19 09:49:24;;;;;;;14.88;3.88;;;;;;;33.32;32.18;99760.38;5069432;28;20028;-22
2022/06/19 09:52:22;;;;;;;15.40;4.25;;;;;;;33.43;32.14;99768.09;5070971;28;20023;-22
2022/06/19 09:54:51;;;;;;;13.48;4.15;;;;;;;33.54;32.08;99759.44;5064837;28;20114;-22
2022/06/19 09:57:21;;;;;;;9.23;4.28;;;;;;;33.70;31.95;99749.38;5069831;28;20491;-22
2022/06/19 10:00:02;;;;;;;13.75;4.30;;;;;;;33.82;31.81;99755.25;5053541;28;20071;-21
2022/06/19 10:02:43;;;;;;;15.43;3.92;;;;;;;33.96;31.41;99760.88;5070332;28;20028;-22
2022/06/19 10:05:29;;;;;;;10.50;4.35;;;;;;;34.01;30.78;99763.91;5058622;28;20025;-22
2022/06/19 10:08:26;;;;;;;9.95;4.57;;;;;;;34.14;30.71;99771.44;5066074;28;20112;-22
2022/06/19 10:11:02;;;;;;;13.43;4.68;;;;;;;34.16;30.63;99761.16;5050849;28;20112;-22
2022/06/19 10:13:43;;;;;;;10.43;4.60;;;;;;;34.26;30.75;99760.84;5068303;28;20067;-22
2022/06/19 10:16:24;;;;;;;13.27;4.20;;;;;;;34.33;30.66;99760.91;5057366;28;20507;-22
2022/06/19 10:18:52;;;;;;;11.90;5.40;;;;;;;34.39;30.23;99761.00;5066482;28;20029;-21
2022/06/19 10:24:18;;;;;;;14.52;5.63;;;;;;;34.54;31.51;99757.38;5070413;28;20454;-22
2022/06/19 10:27:05;;;;;;;8.98;4.55;;;;;;;34.61;31.31;99744.59;5053683;28;20492;-22
2022/06/19 10:29:42;;;;;;;11.18;5.10;;;;;;;34.69;31.27;99743.66;5049116;28;20016;-23
2022/06/19 10:32:50;;;;;;;10.48;4.40;;;;;;;34.84;30.95;99735.34;5053430;28;20047;-22
2022/06/19 10:35:37;;;;;;;10.07;5.05;;;;;;;34.86;31.60;99733.28;5057463;28;20049;-22
2022/06/19 10:38:12;;;;;;;9.50;4.53;;;;;;;34.92;31.39;99731.63;5068486;28;20506;-22
2022/06/19 10:41:03;;;;;;;8.75;4.70;;;;;;;35.01;31.49;99724.13;5068482;28;20051;-22
2022/06/19 10:43:49;;;;;;;12.05;5.13;;;;;;;35.12;31.64;99731.78;5053405;28;20052;-22
2022/06/19 10:46:16;;;;;;;14.98;5.05;;;;;;;35.23;31.93;99733.16;5068407;28;20028;-22
2022/06/19 10:49:20;;;;;;;10.68;4.40;;;;;;;35.30;31.83;99730.47;5068591;28;20021;-22
2022/06/19 10:51:55;;;;;;;10.80;4.55;;;;;;;35.37;31.70;99727.78;5057220;28;20127;-22
2022/06/19 10:54:20;;;;;;;13.25;4.95;;;;;;;35.43;31.61;99730.56;5067415;28;20499;-21
2022/06/19 10:56:56;;;;;;;10.23;5.27;;;;;;;35.52;31.81;99735.88;5068025;28;20063;-22
2022/06/19 10:59:23;;;;;;;12.02;4.60;;;;;;;35.53;31.75;99734.81;5070100;28;20035;-22
2022/06/19 11:05:12;;;;;;;10.45;5.32;;;;;;;35.72;32.61;99741.50;5065036;28;20090;-22
2022/06/19 11:07:38;;;;;;;12.25;5.10;;;;;;;35.83;32.19;99742.81;5050639;28;20043;-22
2022/06/19 11:10:15;;;;;;;8.90;5.13;;;;;;;35.92;31.57;99741.59;5065947;28;20024;-21
2022/06/19 11:12:44;;;;;;;7.68;4.40;;;;;;;35.97;31.08;99742.88;5060903;28;20020;-21
2022/06/19 11:15:24;;;;;;;11.23;4.97;;;;;;;36.00;31.62;99748.78;5051477;28;20032;-22
2022/06/19 11:18:07;;;;;;;9.93;5.40;;;;;;;36.01;31.06;99766.09;5067646;28;20059;-22
2022/06/19 11:20:32;;;;;;;9.98;5.68;;;;;;;36.03;31.22;99766.72;5067090;28;20384;-22
2022/06/19 11:23:01;;;;;;;10.00;4.85;;;;;;;36.11;30.67;99773.94;5052508;28;20499;-23
2022/06/19 11:25:39;;;;;;;7.97;4.75;;;;;;;35.94;30.68;99777.06;5051889;28;20491;-22
2022/06/19 11:28:14;;;;;;;12.00;5.57;;;;;;;36.04;30.86;99782.16;5067645;28;20389;-22
2022/06/19 11:30:42;;;;;;;9.25;5.68;;;;;;;36.12;30.85;99776.50;5052093;28;20029;-22
2022/06/19 11:33:11;;;;;;;9.27;4.63;;;;;;;36.20;30.55;99783.72;5068359;28;20027;-22
2022/06/19 11:35:57;;;;;;;9.73;5.00;;;;;;;36.29;29.88;99779.75;5049319;28;20118;-22
2022/06/19 11:38:34;;;;;;;13.20;5.57;;;;;;;36.34;30.56;99771.72;5052657;28;20067;-22
2022/06/19 11:40:59;;;;;;;17.77;5.40;;;;;;;36.42;29.90;99767.97;5050641;28;20146;-22
2022/06/19 11:43:29;;;;;;;14.18;4.95;;;;;;;36.45;30.50;99773.03;5066667;28;20028;-22
2022/06/19 11:46:03;;;;;;;9.23;5.53;;;;;;;36.45;30.83;99767.56;5050026;28;20029;-21
2022/06/19 11:48:29;;;;;;;15.60;6.53;;;;;;;36.44;30.94;99771.34;5065639;28;20028;-22
2022/06/19 11:50:55;;;;;;;29.05;7.30;;;;;;;36.49;31.76;99772.59;5051428;28;20032;-21